Time;durP1;ratioP1;P1;durP2;ratioP2;P2;SDS_P1;SDS_P2;PMS_P1;PMS_P2;Temp;Humidity;BMP_temperature;BMP_pressure;BME280_temperature;BME280_humidity;BME280_pressure;Samples;Min_cycle;Max_cycle;Signal;HPM_P1;HPM_P2
2022/03/01 00:00:41;;;;;;;;;;;;;;;;;;5034696;28;19916;-69
2022/03/01 00:03:07;;;;;;;;;;;;;;;;;;5016886;28;19917;-69
2022/03/01 00:05:33;;;;;;;;;;;;;;;;;;5034515;28;20374;-69
2022/03/01 00:07:59;;;;;;;;;;;;;;;;;;5035121;28;19913;-69
2022/03/01 00:10:25;;;;;;;;;;;;;;;;;;5034566;28;20030;-69
2022/03/01 00:12:51;;;;;;;;;;;;;;;;;;5034326;28;19916;-69
2022/03/01 00:15:17;;;;;;;;;;;;;;;;;;5016735;28;19909;-70
2022/03/01 00:17:43;;;;;;;;;;;;;;;;;;5016628;28;19913;-70
2022/03/01 00:20:09;;;;;;;;;;;;;;;;;;5033980;28;20007;-69
2022/03/01 00:22:35;;;;;;;;;;;;;;;;;;5034244;28;19949;-70
2022/03/01 00:25:01;;;;;;;;;;;;;;;;;;5034109;28;20362;-69
2022/03/01 00:27:27;;;;;;;;;;;;;;;;;;5033930;28;19916;-69
2022/03/01 00:29:53;;;;;;;;;;;;;;;;;;5016469;28;19909;-70
2022/03/01 00:32:19;;;;;;;;;;;;;;;;;;5016740;28;19916;-70
2022/03/01 00:34:45;;;;;;;;;;;;;;;;;;5016073;28;20285;-70
2022/03/01 00:37:11;;;;;;;;;;;;;;;;;;5034173;28;19947;-69
2022/03/01 00:39:37;;;;;;;;;;;;;;;;;;5016358;28;19948;-70
2022/03/01 00:42:03;;;;;;;;;;;;;;;;;;5033690;28;19909;-70
2022/03/01 00:44:29;;;;;;;;;;;;;;;;;;5033952;28;20024;-69
2022/03/01 00:46:55;;;;;;;;;;;;;;;;;;5033648;28;19909;-70
2022/03/01 00:49:21;;;;;;;;;;;;;;;;;;5015855;28;19916;-69
2022/03/01 00:51:47;;;;;;;;;;;;;;;;;;5034194;28;19910;-70
2022/03/01 00:54:13;;;;;;;;;;;;;;;;;;5016056;28;19913;-69
2022/03/01 00:56:39;;;;;;;;;;;;;;;;;;5033585;28;20358;-70
2022/03/01 00:59:05;;;;;;;;;;;;;;;;;;5033791;28;19913;-70
2022/03/01 01:01:31;;;;;;;;;;;;;;;;;;5015643;28;19916;-69
2022/03/01 01:03:57;;;;;;;;;;;;;;;;;;5033908;28;20000;-69
2022/03/01 01:06:23;;;;;;;;;;;;;;;;;;5034065;28;20012;-69
2022/03/01 01:08:49;;;;;;;;;;;;;;;;;;5015568;28;19959;-69
2022/03/01 01:11:15;;;;;;;;;;;;;;;;;;5033677;28;19949;-69
2022/03/01 01:13:41;;;;;;;;;;;;;;;;;;5015981;28;19909;-70
2022/03/01 01:16:07;;;;;;;;;;;;;;;;;;5033416;28;19963;-70
2022/03/01 01:18:33;;;;;;;;;;;;;;;;;;5033935;28;20477;-70
2022/03/01 01:20:59;;;;;;;;;;;;;;;;;;5033606;28;19913;-70
2022/03/01 01:23:25;;;;;;;;;;;;;;;;;;5033211;28;20285;-70
2022/03/01 01:25:51;;;;;;;;;;;;;;;;;;5033454;28;19917;-70
2022/03/01 01:28:17;;;;;;;;;;;;;;;;;;5033525;28;20425;-70
2022/03/01 01:30:43;;;;;;;;;;;;;;;;;;5033054;28;20067;-70
2022/03/01 01:33:09;;;;;;;;;;;;;;;;;;5015810;28;20028;-70
2022/03/01 01:35:35;;;;;;;;;;;;;;;;;;5033474;28;20024;-70
2022/03/01 01:38:01;;;;;;;;;;;;;;;;;;5033128;28;20016;-70
2022/03/01 01:40:27;;;;;;;;;;;;;;;;;;5015682;28;19921;-70
2022/03/01 01:42:53;;;;;;;;;;;;;;;;;;5026027;28;19943;-70
2022/03/01 01:45:19;;;;;;;;;;;;;;;;;;5051485;28;19917;-69
2022/03/01 01:47:45;;;;;;;;;;;;;;;;;;5053314;28;20442;-70
2022/03/01 01:50:11;;;;;;;;;;;;;;;;;;5051984;28;19915;-70
2022/03/01 01:52:37;;;;;;;;;;;;;;;;;;5052843;28;19908;-70
2022/03/01 01:55:03;;;;;;;;;;;;;;;;;;5053170;28;19977;-69
2022/03/01 01:57:29;;;;;;;;;;;;;;;;;;5053149;28;20400;-70
2022/03/01 01:59:56;;;;;;;;;;;;;;;;;;5055992;28;19999;-70
2022/03/01 02:02:21;;;;;;;;;;;;;;;;;;5056878;28;19909;-70
2022/03/01 02:04:47;;;;;;;;;;;;;;;;;;5056392;28;19924;-69
2022/03/01 02:07:13;;;;;;;;;;;;;;;;;;5055484;28;20331;-69
2022/03/01 02:09:39;;;;;;;;;;;;;;;;;;5057037;28;19956;-69
2022/03/01 02:12:05;;;;;;;;;;;;;;;;;;5055021;28;20373;-70
2022/03/01 02:14:31;;;;;;;;;;;;;;;;;;5056623;28;19915;-70
2022/03/01 02:16:57;;;;;;;;;;;;;;;;;;5055275;28;20003;-70
2022/03/01 02:19:23;;;;;;;;;;;;;;;;;;5056156;28;20304;-70
2022/03/01 02:21:49;;;;;;;;;;;;;;;;;;5055152;28;20003;-70
2022/03/01 02:24:15;;;;;;;;;;;;;;;;;;5055119;28;19963;-69
2022/03/01 02:26:42;;;;;;;;;;;;;;;;;;5056217;28;19936;-70
2022/03/01 02:29:07;;;;;;;;;;;;;;;;;;5056345;28;19909;-70
2022/03/01 02:31:34;;;;;;;;;;;;;;;;;;5056407;28;20293;-70
2022/03/01 02:34:00;;;;;;;;;;;;;;;;;;5054556;28;20369;-70
2022/03/01 02:36:25;;;;;;;;;;;;;;;;;;5056401;28;19909;-70
2022/03/01 02:38:51;;;;;;;;;;;;;;;;;;5056449;28;19909;-70
2022/03/01 02:41:17;;;;;;;;;;;;;;;;;;5055802;28;19909;-70
2022/03/01 02:43:43;;;;;;;;;;;;;;;;;;5042129;28;19928;-69
2022/03/01 02:46:09;;;;;;;;;;;;;;;;;;5036001;28;19917;-70
2022/03/01 02:48:35;;;;;;;;;;;;;;;;;;5035724;28;19981;-70
2022/03/01 02:51:01;;;;;;;;;;;;;;;;;;5018234;28;19910;-70
2022/03/01 02:53:27;;;;;;;;;;;;;;;;;;5035979;28;19916;-70
2022/03/01 02:55:53;;;;;;;;;;;;;;;;;;5035505;28;20016;-70
2022/03/01 02:58:19;;;;;;;;;;;;;;;;;;5035869;28;19909;-70
2022/03/01 03:00:45;;;;;;;;;;;;;;;;;;5036021;28;19909;-70
2022/03/01 03:03:11;;;;;;;;;;;;;;;;;;5035390;28;19910;-70
2022/03/01 03:05:37;;;;;;;;;;;;;;;;;;5017942;28;19924;-69
2022/03/01 03:08:03;;;;;;;;;;;;;;;;;;5035312;28;19916;-69
2022/03/01 03:10:29;;;;;;;;;;;;;;;;;;5035300;28;19909;-69
2022/03/01 03:12:55;;;;;;;;;;;;;;;;;;5035566;28;19916;-69
2022/03/01 03:15:21;;;;;;;;;;;;;;;;;;5035174;28;19913;-70
2022/03/01 03:17:49;;;;;;;;;;;;;;;;;;5036099;28;19910;-68
2022/03/01 03:20:15;;;;;;;;;;;;;;;;;;5035440;28;19916;-69
2022/03/01 03:22:41;;;;;;;;;;;;;;;;;;5035110;28;19909;-69
2022/03/01 03:25:06;;;;;;;;;;;;;;;;;;5017551;28;19917;-69
2022/03/01 03:27:32;;;;;;;;;;;;;;;;;;5017645;28;19963;-69
2022/03/01 03:29:58;;;;;;;;;;;;;;;;;;5017131;28;20426;-69
2022/03/01 03:32:24;;;;;;;;;;;;;;;;;;5035291;28;19916;-68
2022/03/01 03:34:50;;;;;;;;;;;;;;;;;;5017470;28;20007;-68
2022/03/01 03:37:16;;;;;;;;;;;;;;;;;;5016921;28;19920;-68
2022/03/01 03:39:42;;;;;;;;;;;;;;;;;;5017322;28;19913;-68
2022/03/01 03:42:08;;;;;;;;;;;;;;;;;;5035160;28;20330;-68
2022/03/01 03:44:34;;;;;;;;;;;;;;;;;;5016901;28;20019;-71
2022/03/01 03:47:00;;;;;;;;;;;;;;;;;;5034949;28;19959;-70
2022/03/01 03:49:26;;;;;;;;;;;;;;;;;;5034923;28;20004;-70
2022/03/01 03:51:52;;;;;;;;;;;;;;;;;;5016684;28;19916;-70
2022/03/01 03:54:19;;;;;;;;;;;;;;;;;;5017118;28;20043;-70
2022/03/01 03:56:45;;;;;;;;;;;;;;;;;;5034940;28;20385;-70
2022/03/01 03:59:11;;;;;;;;;;;;;;;;;;5016558;28;19913;-70
2022/03/01 04:01:37;;;;;;;;;;;;;;;;;;5016942;28;20392;-70
2022/03/01 04:04:03;;;;;;;;;;;;;;;;;;5034944;28;19983;-70
2022/03/01 04:06:29;;;;;;;;;;;;;;;;;;5034202;28;20011;-70
2022/03/01 04:08:54;;;;;;;;;;;;;;;;;;5035099;28;19999;-70
2022/03/01 04:11:21;;;;;;;;;;;;;;;;;;5034091;28;19963;-70
2022/03/01 04:13:46;;;;;;;;;;;;;;;;;;5016700;28;19909;-70
2022/03/01 04:16:12;;;;;;;;;;;;;;;;;;5016617;28;20392;-70
2022/03/01 04:18:38;;;;;;;;;;;;;;;;;;5034033;28;19944;-70
2022/03/01 04:21:04;;;;;;;;;;;;;;;;;;5034303;28;20390;-70
2022/03/01 04:23:30;;;;;;;;;;;;;;;;;;5015883;28;19913;-70
2022/03/01 04:25:56;;;;;;;;;;;;;;;;;;5033821;28;20274;-70
2022/03/01 04:28:23;;;;;;;;;;;;;;;;;;5034338;28;19909;-70
2022/03/01 04:30:49;;;;;;;;;;;;;;;;;;5034260;28;20020;-70
2022/03/01 04:33:15;;;;;;;;;;;;;;;;;;5016108;28;19948;-69
2022/03/01 04:35:41;;;;;;;;;;;;;;;;;;5016412;28;20388;-70
2022/03/01 04:38:07;;;;;;;;;;;;;;;;;;5034159;28;19909;-70
2022/03/01 04:40:33;;;;;;;;;;;;;;;;;;5016009;28;20358;-70
2022/03/01 04:42:59;;;;;;;;;;;;;;;;;;5033799;28;20378;-70
2022/03/01 04:45:25;;;;;;;;;;;;;;;;;;5034147;28;19921;-68
2022/03/01 04:47:51;;;;;;;;;;;;;;;;;;5015837;28;19909;-70
2022/03/01 04:50:17;;;;;;;;;;;;;;;;;;5033997;28;19909;-70
2022/03/01 04:52:43;;;;;;;;;;;;;;;;;;5033854;28;19916;-70
2022/03/01 04:55:10;;;;;;;;;;;;;;;;;;5033604;28;19909;-70
2022/03/01 04:57:36;;;;;;;;;;;;;;;;;;5016096;28;19909;-70
2022/03/01 05:00:02;;;;;;;;;;;;;;;;;;5033807;28;19913;-70
2022/03/01 05:02:28;;;;;;;;;;;;;;;;;;5033380;28;19913;-70
2022/03/01 05:04:54;;;;;;;;;;;;;;;;;;5033698;28;19917;-70
2022/03/01 05:07:20;;;;;;;;;;;;;;;;;;5015945;28;19909;-70
2022/03/01 05:09:46;;;;;;;;;;;;;;;;;;5033269;28;19915;-70
2022/03/01 05:12:12;;;;;;;;;;;;;;;;;;5033677;28;20003;-68
2022/03/01 05:14:38;;;;;;;;;;;;;;;;;;5033251;28;19913;-70
2022/03/01 05:17:04;;;;;;;;;;;;;;;;;;5015898;28;19909;-75
2022/03/01 05:19:30;;;;;;;;;;;;;;;;;;5033613;28;20262;-71
2022/03/01 05:21:56;;;;;;;;;;;;;;;;;;5033214;28;19919;-72
2022/03/01 05:24:22;;;;;;;;;;;;;;;;;;5033425;28;19949;-71
2022/03/01 05:26:50;;;;;;;;;;;;;;;;;;5015810;28;19953;-72
2022/03/01 05:29:16;;;;;;;;;;;;;;;;;;5015468;28;19916;-72
2022/03/01 05:31:42;;;;;;;;;;;;;;;;;;5015592;28;20000;-72
2022/03/01 05:34:08;;;;;;;;;;;;;;;;;;5035570;28;20364;-73
2022/03/01 05:36:34;;;;;;;;;;;;;;;;;;5037028;28;19910;-72
2022/03/01 05:39:00;;;;;;;;;;;;;;;;;;5019613;28;19909;-71
2022/03/01 05:41:26;;;;;;;;;;;;;;;;;;5019591;28;19917;-79
2022/03/01 05:43:52;;;;;;;;;;;;;;;;;;5036979;28;19921;-75
2022/03/01 05:46:18;;;;;;;;;;;;;;;;;;5037296;28;19987;-76
2022/03/01 05:48:44;;;;;;;;;;;;;;;;;;5037648;28;19909;-75
2022/03/01 05:51:10;;;;;;;;;;;;;;;;;;5036919;28;19917;-75
2022/03/01 05:53:36;;;;;;;;;;;;;;;;;;5019361;28;20258;-75
2022/03/01 05:56:01;;;;;;;;;;;;;;;;;;5037008;28;19917;-75
2022/03/01 05:58:27;;;;;;;;;;;;;;;;;;5036769;28;19909;-75
2022/03/01 06:00:53;;;;;;;;;;;;;;;;;;5035962;28;19932;-74
2022/03/01 06:03:19;;;;;;;;;;;;;;;;;;5035323;28;19909;-76
2022/03/01 06:05:45;;;;;;;;;;;;;;;;;;5035548;28;19917;-74
2022/03/01 06:08:12;;;;;;;;;;;;;;;;;;5034812;28;19983;-70
2022/03/01 06:10:37;;;;;;;;;;;;;;;;;;5015488;28;19924;-72
2022/03/01 06:13:03;;;;;;;;;;;;;;;;;;5017424;28;20370;-75
2022/03/01 06:15:29;;;;;;;;;;;;;;;;;;5036158;28;19916;-74
2022/03/01 06:17:55;;;;;;;;;;;;;;;;;;5035402;28;19909;-72
2022/03/01 06:20:22;;;;;;;;;;;;;;;;;;5036339;28;20262;-72
2022/03/01 06:22:48;;;;;;;;;;;;;;;;;;5035986;28;19909;-72
2022/03/01 06:25:14;;;;;;;;;;;;;;;;;;5034470;28;20509;-74
2022/03/01 06:27:40;;;;;;;;;;;;;;;;;;5035425;28;20320;-72
2022/03/01 06:30:06;;;;;;;;;;;;;;;;;;5035918;28;19963;-74
2022/03/01 06:32:32;;;;;;;;;;;;;;;;;;5035303;28;19913;-74
2022/03/01 06:34:58;;;;;;;;;;;;;;;;;;5035609;28;20423;-73
2022/03/01 06:37:24;;;;;;;;;;;;;;;;;;5018043;28;20004;-75
2022/03/01 06:39:50;;;;;;;;;;;;;;;;;;5035500;28;20293;-74
2022/03/01 06:42:16;;;;;;;;;;;;;;;;;;5017909;28;19955;-75
2022/03/01 06:44:42;;;;;;;;;;;;;;;;;;5017272;28;19921;-76
2022/03/01 06:47:08;;;;;;;;;;;;;;;;;;5035213;28;19917;-75
2022/03/01 06:49:34;;;;;;;;;;;;;;;;;;5017559;28;19967;-73
2022/03/01 06:52:00;;;;;;;;;;;;;;;;;;5035910;28;19909;-73
2022/03/01 06:54:26;;;;;;;;;;;;;;;;;;5035047;28;19996;-73
2022/03/01 06:56:52;;;;;;;;;;;;;;;;;;5017862;28;19993;-75
2022/03/01 06:59:18;;;;;;;;;;;;;;;;;;5035519;28;19913;-74
2022/03/01 07:01:44;;;;;;;;;;;;;;;;;;5016455;28;19956;-73
2022/03/01 07:04:10;;;;;;;;;;;;;;;;;;5032538;28;19909;-75
2022/03/01 07:06:36;;;;;;;;;;;;;;;;;;5033213;28;19917;-73
2022/03/01 07:09:02;;;;;;;;;;;;;;;;;;5031974;28;20448;-73
2022/03/01 07:11:28;;;;;;;;;;;;;;;;;;5032310;28;19913;-73
2022/03/01 07:13:54;;;;;;;;;;;;;;;;;;5033124;28;19917;-74
2022/03/01 07:16:20;;;;;;;;;;;;;;;;;;5032630;28;19909;-73
2022/03/01 07:18:46;;;;;;;;;;;;;;;;;;5016354;28;19909;-75
2022/03/01 07:21:12;;;;;;;;;;;;;;;;;;5016451;28;20662;-71
2022/03/01 07:23:40;;;;;;;;;;;;;;;;;;5033565;28;19914;-73
2022/03/01 07:26:06;;;;;;;;;;;;;;;;;;5015694;28;20049;-73
2022/03/01 07:28:32;;;;;;;;;;;;;;;;;;5034094;28;20456;-75
2022/03/01 07:30:58;;;;;;;;;;;;;;;;;;5034448;28;19913;-73
2022/03/01 07:33:24;;;;;;;;;;;;;;;;;;5034255;28;20314;-73
2022/03/01 07:35:50;;;;;;;;;;;;;;;;;;5014926;28;19916;-74
2022/03/01 07:38:16;;;;;;;;;;;;;;;;;;5014856;28;20451;-73
2022/03/01 07:40:42;;;;;;;;;;;;;;;;;;5031517;28;19955;-73
2022/03/01 07:43:08;;;;;;;;;;;;;;;;;;5030117;28;19925;-74
2022/03/01 07:45:34;;;;;;;;;;;;;;;;;;5014136;28;19917;-72
2022/03/01 07:48:01;;;;;;;;;;;;;;;;;;5032267;28;19959;-74
2022/03/01 07:50:27;;;;;;;;;;;;;;;;;;5029467;28;20426;-73
2022/03/01 07:52:54;;;;;;;;;;;;;;;;;;5033372;28;20003;-72
2022/03/01 07:55:21;;;;;;;;;;;;;;;;;;5033905;28;19945;-72
2022/03/01 07:57:47;;;;;;;;;;;;;;;;;;5033422;28;19996;-72
2022/03/01 08:00:14;;;;;;;;;;;;;;;;;;5015384;28;19924;-74
2022/03/01 08:02:40;;;;;;;;;;;;;;;;;;5033851;28;19909;-76
2022/03/01 08:05:07;;;;;;;;;;;;;;;;;;5033349;28;20267;-69
2022/03/01 08:07:33;;;;;;;;;;;;;;;;;;5033690;28;19915;-71
2022/03/01 08:10:00;;;;;;;;;;;;;;;;;;5033903;28;19913;-72
2022/03/01 08:12:27;;;;;;;;;;;;;;;;;;5015635;28;19999;-73
2022/03/01 08:14:53;;;;;;;;;;;;;;;;;;5033744;28;19909;-72
2022/03/01 08:17:20;;;;;;;;;;;;;;;;;;5033949;28;19916;-72
2022/03/01 08:19:49;;;;;;;;;;;;;;;;;;5033549;28;19916;-73
2022/03/01 08:22:15;;;;;;;;;;;;;;;;;;5033650;28;19920;-71
2022/03/01 08:24:41;;;;;;;;;;;;;;;;;;5033216;28;19909;-73
2022/03/01 08:27:07;;;;;;;;;;;;;;;;;;5016193;28;20281;-73
2022/03/01 08:29:33;;;;;;;;;;;;;;;;;;5015807;28;19909;-74
2022/03/01 08:31:59;;;;;;;;;;;;;;;;;;5030963;28;19916;-73
2022/03/01 08:34:25;;;;;;;;;;;;;;;;;;5031776;28;19909;-73
2022/03/01 08:36:51;;;;;;;;;;;;;;;;;;5010866;28;20547;-72
2022/03/01 08:39:17;;;;;;;;;;;;;;;;;;5010269;28;19909;-73
2022/03/01 08:41:43;;;;;;;;;;;;;;;;;;5029338;28;20428;-74
2022/03/01 08:44:09;;;;;;;;;;;;;;;;;;5044622;28;19978;-74
2022/03/01 08:46:35;;;;;;;;;;;;;;;;;;5050376;28;19916;-71
2022/03/01 08:49:01;;;;;;;;;;;;;;;;;;5053074;28;19916;-75
2022/03/01 08:51:27;;;;;;;;;;;;;;;;;;5051614;28;19909;-72
2022/03/01 08:53:53;;;;;;;;;;;;;;;;;;5051239;28;20277;-74
2022/03/01 08:56:19;;;;;;;;;;;;;;;;;;5053332;28;19909;-72
2022/03/01 08:58:45;;;;;;;;;;;;;;;;;;5052688;28;20003;-71
2022/03/01 09:01:11;;;;;;;;;;;;;;;;;;5049281;28;19932;-75
2022/03/01 09:03:37;;;;;;;;;;;;;;;;;;5051307;28;19913;-70
2022/03/01 09:06:05;;;;;;;;;;;;;;;;;;5051006;28;19939;-73
2022/03/01 09:08:31;;;;;;;;;;;;;;;;;;5049643;28;19936;-72
2022/03/01 09:10:57;;;;;;;;;;;;;;;;;;5049536;28;20002;-73
2022/03/01 09:13:23;;;;;;;;;;;;;;;;;;5049774;28;19952;-73
2022/03/01 09:15:49;;;;;;;;;;;;;;;;;;5047362;28;19931;-73
2022/03/01 09:18:15;;;;;;;;;;;;;;;;;;5052130;28;19909;-72
2022/03/01 09:20:41;;;;;;;;;;;;;;;;;;5052600;28;19909;-72
2022/03/01 09:23:07;;;;;;;;;;;;;;;;;;5052171;28;19916;-74
2022/03/01 09:25:33;;;;;;;;;;;;;;;;;;5050768;28;19986;-71
2022/03/01 09:27:59;;;;;;;;;;;;;;;;;;5050495;28;19917;-73
2022/03/01 09:30:25;;;;;;;;;;;;;;;;;;5049589;28;19928;-72
2022/03/01 09:32:51;;;;;;;;;;;;;;;;;;5050989;28;19909;-74
2022/03/01 09:35:17;;;;;;;;;;;;;;;;;;5051416;28;19915;-72
2022/03/01 09:37:43;;;;;;;;;;;;;;;;;;5052048;28;19908;-74
2022/03/01 09:40:11;;;;;;;;;;;;;;;;;;5052911;28;19996;-73
2022/03/01 09:42:37;;;;;;;;;;;;;;;;;;5052215;28;19940;-72
2022/03/01 09:45:03;;;;;;;;;;;;;;;;;;5035105;28;19917;-75
2022/03/01 09:47:29;;;;;;;;;;;;;;;;;;5033537;28;19909;-73
2022/03/01 09:49:55;;;;;;;;;;;;;;;;;;5033872;28;19919;-73
2022/03/01 09:52:21;;;;;;;;;;;;;;;;;;5052878;28;19909;-74
2022/03/01 09:54:47;;;;;;;;;;;;;;;;;;5052786;28;19909;-72
2022/03/01 09:57:14;;;;;;;;;;;;;;;;;;5037074;28;19917;-71
2022/03/01 09:59:39;;;;;;;;;;;;;;;;;;5029050;28;19909;-74
2022/03/01 10:02:06;;;;;;;;;;;;;;;;;;5014613;28;20392;-73
2022/03/01 10:04:32;;;;;;;;;;;;;;;;;;5013987;28;19914;-73
2022/03/01 10:06:58;;;;;;;;;;;;;;;;;;5032360;28;19916;-72
2022/03/01 10:09:24;;;;;;;;;;;;;;;;;;5014681;28;20012;-74
2022/03/01 10:11:50;;;;;;;;;;;;;;;;;;5031199;28;19916;-74
2022/03/01 10:14:16;;;;;;;;;;;;;;;;;;5032248;28;20281;-72
2022/03/01 10:16:42;;;;;;;;;;;;;;;;;;5032142;28;19920;-73
2022/03/01 10:19:08;;;;;;;;;;;;;;;;;;5031914;28;19913;-75
2022/03/01 10:21:34;;;;;;;;;;;;;;;;;;5017207;28;20396;-75
2022/03/01 10:24:00;;;;;;;;;;;;;;;;;;5035436;28;19909;-73
2022/03/01 10:26:26;;;;;;;;;;;;;;;;;;5017227;28;19928;-73
2022/03/01 10:28:52;;;;;;;;;;;;;;;;;;5035283;28;19932;-72
2022/03/01 10:31:18;;;;;;;;;;;;;;;;;;5035154;28;19913;-73
2022/03/01 10:33:44;;;;;;;;;;;;;;;;;;5035646;28;20352;-74
2022/03/01 10:36:10;;;;;;;;;;;;;;;;;;5035644;28;19996;-76
2022/03/01 10:38:39;;;;;;;;;;;;;;;;;;5017434;28;19909;-75
2022/03/01 10:41:05;;;;;;;;;;;;;;;;;;5035819;28;19960;-77
2022/03/01 10:43:31;;;;;;;;;;;;;;;;;;5038717;28;20400;-77
2022/03/01 10:45:57;;;;;;;;;;;;;;;;;;5053723;28;19917;-74
2022/03/01 10:48:23;;;;;;;;;;;;;;;;;;5055695;28;19908;-75
2022/03/01 10:50:49;;;;;;;;;;;;;;;;;;5055694;28;20283;-75
2022/03/01 10:53:15;;;;;;;;;;;;;;;;;;5055690;28;19995;-75
2022/03/01 10:55:43;;;;;;;;;;;;;;;;;;5055659;28;19909;-75
2022/03/01 10:58:10;;;;;;;;;;;;;;;;;;5053996;28;19958;-79
2022/03/01 11:00:36;;;;;;;;;;;;;;;;;;5053644;28;19955;-75
2022/03/01 11:03:02;;;;;;;;;;;;;;;;;;5054551;28;20376;-75
2022/03/01 11:05:28;;;;;;;;;;;;;;;;;;5055192;28;19921;-75
2022/03/01 11:07:54;;;;;;;;;;;;;;;;;;5052694;28;19944;-74
2022/03/01 11:10:22;;;;;;;;;;;;;;;;;;5054615;28;20375;-75
2022/03/01 11:12:48;;;;;;;;;;;;;;;;;;5053502;28;19954;-75
2022/03/01 11:15:14;;;;;;;;;;;;;;;;;;5054485;28;19909;-75
2022/03/01 11:17:40;;;;;;;;;;;;;;;;;;5053785;28;19916;-75
2022/03/01 11:20:06;;;;;;;;;;;;;;;;;;5055135;28;20362;-75
2022/03/01 11:22:32;;;;;;;;;;;;;;;;;;5054575;28;19966;-74
2022/03/01 11:24:58;;;;;;;;;;;;;;;;;;5055065;28;19927;-75
2022/03/01 11:27:24;;;;;;;;;;;;;;;;;;5054726;28;19909;-74
2022/03/01 11:29:50;;;;;;;;;;;;;;;;;;5053968;28;19915;-75
2022/03/01 11:32:16;;;;;;;;;;;;;;;;;;5053408;28;19999;-74
2022/03/01 11:34:42;;;;;;;;;;;;;;;;;;5054616;28;19940;-75
2022/03/01 11:37:08;;;;;;;;;;;;;;;;;;5054472;28;19934;-74
2022/03/01 11:39:34;;;;;;;;;;;;;;;;;;5054265;28;19917;-74
2022/03/01 11:42:00;;;;;;;;;;;;;;;;;;5054157;28;19909;-75
2022/03/01 11:44:26;;;;;;;;;;;;;;;;;;5034944;28;19921;-74
2022/03/01 11:46:52;;;;;;;;;;;;;;;;;;5016833;28;20399;-73
2022/03/01 11:49:18;;;;;;;;;;;;;;;;;;5016624;28;20293;-73
2022/03/01 11:51:44;;;;;;;;;;;;;;;;;;5034782;28;19952;-73
2022/03/01 11:54:10;;;;;;;;;;;;;;;;;;5016921;28;20052;-73
2022/03/01 11:56:36;;;;;;;;;;;;;;;;;;5016016;28;20058;-74
2022/03/01 11:59:02;;;;;;;;;;;;;;;;;;5034520;28;19910;-75
2022/03/01 12:01:28;;;;;;;;;;;;;;;;;;5032187;28;19924;-74
2022/03/01 12:03:54;;;;;;;;;;;;;;;;;;5034110;28;20328;-73
2022/03/01 12:06:20;;;;;;;;;;;;;;;;;;5034397;28;19917;-74
2022/03/01 12:08:46;;;;;;;;;;;;;;;;;;5032971;28;20273;-75
2022/03/01 12:11:12;;;;;;;;;;;;;;;;;;5033934;28;19913;-75
2022/03/01 12:13:38;;;;;;;;;;;;;;;;;;5032707;28;19919;-76
2022/03/01 12:16:04;;;;;;;;;;;;;;;;;;5030094;28;19955;-74
2022/03/01 12:18:31;;;;;;;;;;;;;;;;;;5015859;28;19909;-75
2022/03/01 12:20:57;;;;;;;;;;;;;;;;;;5016341;28;19909;-74
2022/03/01 12:23:23;;;;;;;;;;;;;;;;;;5033732;28;19910;-74
2022/03/01 12:25:48;;;;;;;;;;;;;;;;;;5015506;28;19921;-75
2022/03/01 12:28:16;;;;;;;;;;;;;;;;;;5016350;28;19909;-74
2022/03/01 12:30:42;;;;;;;;;;;;;;;;;;5033530;28;19909;-74
2022/03/01 12:33:08;;;;;;;;;;;;;;;;;;5033811;28;19941;-74
2022/03/01 12:35:35;;;;;;;;;;;;;;;;;;5015142;28;19948;-74
2022/03/01 12:38:01;;;;;;;;;;;;;;;;;;5033585;28;20417;-74
2022/03/01 12:40:27;;;;;;;;;;;;;;;;;;5033898;28;20029;-73
2022/03/01 12:42:53;;;;;;;;;;;;;;;;;;5032909;28;19921;-76
2022/03/01 12:45:19;;;;;;;;;;;;;;;;;;5015727;28;20384;-74
2022/03/01 12:47:45;;;;;;;;;;;;;;;;;;5033846;28;19909;-73
2022/03/01 12:50:11;;;;;;;;;;;;;;;;;;5033812;28;19909;-74
2022/03/01 12:52:37;;;;;;;;;;;;;;;;;;5015434;28;19913;-73
2022/03/01 12:55:03;;;;;;;;;;;;;;;;;;5033653;28;19916;-74
2022/03/01 12:57:29;;;;;;;;;;;;;;;;;;5032906;28;20369;-75
2022/03/01 12:59:55;;;;;;;;;;;;;;;;;;5033291;28;19955;-75
2022/03/01 13:02:21;;;;;;;;;;;;;;;;;;5029528;28;19932;-75
2022/03/01 13:04:49;;;;;;;;;;;;;;;;;;5014299;28;19996;-75
2022/03/01 13:07:15;;;;;;;;;;;;;;;;;;5032696;28;19909;-74
2022/03/01 13:09:41;;;;;;;;;;;;;;;;;;5032868;28;19916;-75
2022/03/01 13:12:07;;;;;;;;;;;;;;;;;;5014400;28;19909;-74
2022/03/01 13:14:33;;;;;;;;;;;;;;;;;;5031197;28;19909;-75
2022/03/01 13:16:59;;;;;;;;;;;;;;;;;;5033396;28;20388;-74
2022/03/01 13:19:25;;;;;;;;;;;;;;;;;;5015680;28;19916;-74
2022/03/01 13:21:52;;;;;;;;;;;;;;;;;;5032641;28;20334;-75
2022/03/01 13:24:18;;;;;;;;;;;;;;;;;;5033276;28;20373;-74
2022/03/01 13:26:44;;;;;;;;;;;;;;;;;;5015102;28;19932;-76
2022/03/01 13:29:10;;;;;;;;;;;;;;;;;;5032944;28;19962;-75
2022/03/01 13:31:36;;;;;;;;;;;;;;;;;;5033126;28;20003;-75
2022/03/01 13:34:02;;;;;;;;;;;;;;;;;;5032586;28;20006;-75
2022/03/01 13:36:28;;;;;;;;;;;;;;;;;;5015310;28;20395;-75
2022/03/01 13:38:54;;;;;;;;;;;;;;;;;;5015396;28;19948;-76
2022/03/01 13:41:20;;;;;;;;;;;;;;;;;;5032867;28;19916;-75
2022/03/01 13:43:46;;;;;;;;;;;;;;;;;;5032841;28;20358;-75
2022/03/01 13:46:12;;;;;;;;;;;;;;;;;;5015333;28;19921;-75
2022/03/01 13:48:38;;;;;;;;;;;;;;;;;;5014541;28;19971;-75
2022/03/01 13:51:04;;;;;;;;;;;;;;;;;;5015344;28;19947;-75
2022/03/01 13:53:30;;;;;;;;;;;;;;;;;;5015422;28;19909;-76
2022/03/01 13:55:56;;;;;;;;;;;;;;;;;;5032691;28;20000;-75
2022/03/01 13:58:22;;;;;;;;;;;;;;;;;;5018289;28;19909;-76
2022/03/01 14:00:48;;;;;;;;;;;;;;;;;;5018212;28;20397;-77
2022/03/01 14:03:14;;;;;;;;;;;;;;;;;;5018386;28;20269;-76
2022/03/01 14:05:44;;;;;;;;;;;;;;;;;;5035985;28;19917;-74
2022/03/01 14:08:10;;;;;;;;;;;;;;;;;;5036119;28;19920;-72
2022/03/01 14:10:36;;;;;;;;;;;;;;;;;;5018189;28;19909;-71
2022/03/01 14:13:02;;;;;;;;;;;;;;;;;;5036521;28;19909;-71
2022/03/01 14:15:28;;;;;;;;;;;;;;;;;;5018680;28;19913;-71
2022/03/01 14:17:55;;;;;;;;;;;;;;;;;;5036113;28;19916;-72
2022/03/01 14:20:21;;;;;;;;;;;;;;;;;;5036630;28;20353;-73
2022/03/01 14:22:47;;;;;;;;;;;;;;;;;;5036593;28;19915;-72
2022/03/01 14:25:13;;;;;;;;;;;;;;;;;;5018173;28;19913;-72
2022/03/01 14:27:39;;;;;;;;;;;;;;;;;;5036465;28;19935;-72
2022/03/01 14:30:05;;;;;;;;;;;;;;;;;;5036102;28;19956;-72
2022/03/01 14:32:31;;;;;;;;;;;;;;;;;;5036361;28;20297;-73
2022/03/01 14:34:57;;;;;;;;;;;;;;;;;;5036307;28;19916;-72
2022/03/01 14:37:23;;;;;;;;;;;;;;;;;;5035920;28;19909;-72
2022/03/01 14:39:49;;;;;;;;;;;;;;;;;;5036353;28;19916;-72
2022/03/01 14:42:15;;;;;;;;;;;;;;;;;;5018383;28;19960;-72
2022/03/01 14:44:41;;;;;;;;;;;;;;;;;;5018184;28;19917;-72
2022/03/01 14:47:07;;;;;;;;;;;;;;;;;;5018407;28;19955;-71
2022/03/01 14:49:37;;;;;;;;;;;;;;;;;;5036149;28;19963;-71
2022/03/01 14:52:03;;;;;;;;;;;;;;;;;;5017858;28;19909;-71
2022/03/01 14:54:29;;;;;;;;;;;;;;;;;;5035072;28;19910;-71
2022/03/01 14:56:55;;;;;;;;;;;;;;;;;;5036215;28;20366;-71
2022/03/01 14:59:21;;;;;;;;;;;;;;;;;;5017816;28;19916;-72
2022/03/01 15:01:47;;;;;;;;;;;;;;;;;;5035849;28;19979;-72
2022/03/01 15:04:13;;;;;;;;;;;;;;;;;;5018218;28;19910;-72
2022/03/01 15:06:39;;;;;;;;;;;;;;;;;;5034581;28;20013;-71
2022/03/01 15:09:05;;;;;;;;;;;;;;;;;;5017975;28;19909;-72
2022/03/01 15:11:31;;;;;;;;;;;;;;;;;;5036046;28;19935;-72
2022/03/01 15:13:58;;;;;;;;;;;;;;;;;;5017624;28;20324;-71
2022/03/01 15:16:25;;;;;;;;;;;;;;;;;;5035690;28;19955;-71
2022/03/01 15:18:51;;;;;;;;;;;;;;;;;;5017820;28;20000;-71
2022/03/01 15:21:17;;;;;;;;;;;;;;;;;;5017368;28;20448;-71
2022/03/01 15:23:43;;;;;;;;;;;;;;;;;;5035672;28;19991;-72
2022/03/01 15:26:09;;;;;;;;;;;;;;;;;;5035928;28;20075;-71
2022/03/01 15:28:35;;;;;;;;;;;;;;;;;;5035043;28;20341;-71
2022/03/01 15:31:01;;;;;;;;;;;;;;;;;;5035326;28;19917;-71
2022/03/01 15:33:27;;;;;;;;;;;;;;;;;;5017134;28;19909;-71
2022/03/01 15:35:53;;;;;;;;;;;;;;;;;;5035523;28;19909;-71
2022/03/01 15:38:19;;;;;;;;;;;;;;;;;;5035342;28;19912;-71
2022/03/01 15:40:44;;;;;;;;;;;;;;;;;;5035327;28;19918;-71
2022/03/01 15:43:11;;;;;;;;;;;;;;;;;;5034987;28;19921;-72
2022/03/01 15:45:37;;;;;;;;;;;;;;;;;;5034948;28;19978;-71
2022/03/01 15:48:02;;;;;;;;;;;;;;;;;;5016856;28;20286;-71
2022/03/01 15:50:28;;;;;;;;;;;;;;;;;;5035002;28;19920;-71
2022/03/01 15:52:54;;;;;;;;;;;;;;;;;;5034946;28;19909;-71
2022/03/01 15:55:20;;;;;;;;;;;;;;;;;;5034490;28;20392;-72
2022/03/01 15:57:46;;;;;;;;;;;;;;;;;;5034965;28;19909;-71
2022/03/01 16:00:13;;;;;;;;;;;;;;;;;;5034781;28;19920;-73
2022/03/01 16:02:39;;;;;;;;;;;;;;;;;;5034309;28;19917;-71
2022/03/01 16:05:04;;;;;;;;;;;;;;;;;;5034826;28;19920;-71
2022/03/01 16:07:30;;;;;;;;;;;;;;;;;;5034587;28;20297;-71
2022/03/01 16:09:56;;;;;;;;;;;;;;;;;;5034254;28;19909;-70
2022/03/01 16:12:24;;;;;;;;;;;;;;;;;;5034627;28;20349;-71
2022/03/01 16:14:50;;;;;;;;;;;;;;;;;;5016766;28;19916;-71
2022/03/01 16:17:17;;;;;;;;;;;;;;;;;;5034109;28;19909;-71
2022/03/01 16:19:43;;;;;;;;;;;;;;;;;;5034517;28;19963;-71
2022/03/01 16:22:09;;;;;;;;;;;;;;;;;;5034516;28;20385;-71
2022/03/01 16:24:35;;;;;;;;;;;;;;;;;;5033936;28;19909;-71
2022/03/01 16:27:01;;;;;;;;;;;;;;;;;;5034321;28;20409;-70
2022/03/01 16:29:27;;;;;;;;;;;;;;;;;;5016461;28;19948;-72
2022/03/01 16:31:53;;;;;;;;;;;;;;;;;;5033824;28;19916;-71
2022/03/01 16:34:19;;;;;;;;;;;;;;;;;;5034213;28;19910;-71
2022/03/01 16:36:45;;;;;;;;;;;;;;;;;;5033717;28;19910;-72